Time;durP1;ratioP1;P1;durP2;ratioP2;P2;SDS_P1;SDS_P2;PMS_P1;PMS_P2;Temp;Humidity;BMP_temperature;BMP_pressure;BME280_temperature;BME280_humidity;BME280_pressure;Samples;Min_cycle;Max_cycle;Signal;HPM_P1;HPM_P2
2022/07/10 00:00:53;;;;;;;3.47;3.17;;;;;;;;;;7423720;19;20175;-79
2022/07/10 00:03:18;;;;;;;3.20;2.87;;;;;;;;;;7421787;19;20145;-78
2022/07/10 00:05:44;;;;;;;5.20;3.80;;;;;;;;;;7389218;19;20160;-77
2022/07/10 00:08:09;;;;;;;4.30;3.33;;;;;;;;;;7386901;19;20196;-77
2022/07/10 00:10:35;;;;;;;6.60;3.20;;;;;;;;;;7387809;19;20172;-78
2022/07/10 00:13:00;;;;;;;3.97;3.13;;;;;;;;;;7388936;19;20450;-78
2022/07/10 00:15:26;;;;;;;4.83;3.80;;;;;;;;;;7387623;19;20121;-79
2022/07/10 00:17:51;;;;;;;6.30;3.63;;;;;;;;;;7387848;19;20144;-78
2022/07/10 00:20:16;;;;;;;4.10;3.50;;;;;;;;;;7387963;19;20594;-78
2022/07/10 00:22:42;;;;;;;5.30;3.70;;;;;;;;;;7387166;19;20155;-78
2022/07/10 00:25:10;;;;;;;8.40;4.17;;;;;;;;;;7388106;19;20117;-78
2022/07/10 00:27:36;;;;;;;5.43;3.30;;;;;;;;;;7387752;19;20137;-77
2022/07/10 00:30:02;;;;;;;3.53;3.23;;;;;;;;;;7387627;19;20135;-78
2022/07/10 00:32:28;;;;;;;5.43;3.57;;;;;;;;;;7388913;19;20957;-78
2022/07/10 00:34:53;;;;;;;5.40;3.73;;;;;;;;;;7395052;19;20152;-78
2022/07/10 00:37:20;;;;;;;4.40;3.43;;;;;;;;;;7394955;19;20136;-78
2022/07/10 00:39:46;;;;;;;3.30;3.00;;;;;;;;;;7395070;19;20140;-78
2022/07/10 00:42:15;;;;;;;3.47;3.17;;;;;;;;;;7391233;19;20191;-78
2022/07/10 00:44:42;;;;;;;3.47;3.07;;;;;;;;;;7395565;19;20208;-78
2022/07/10 00:47:08;;;;;;;4.20;3.33;;;;;;;;;;7394930;19;20243;-78
2022/07/10 00:49:35;;;;;;;5.53;3.13;;;;;;;;;;7394891;19;20192;-78
2022/07/10 00:52:02;;;;;;;3.63;3.10;;;;;;;;;;7391909;19;20161;-77
2022/07/10 00:54:32;;;;;;;4.40;3.00;;;;;;;;;;7395459;19;20152;-77
2022/07/10 00:56:57;;;;;;;5.03;3.10;;;;;;;;;;7394595;19;20157;-77
2022/07/10 00:59:23;;;;;;;4.30;3.17;;;;;;;;;;7391486;19;20151;-78
2022/07/10 01:01:50;;;;;;;4.23;3.03;;;;;;;;;;7393309;19;20172;-78
2022/07/10 01:04:15;;;;;;;3.90;3.23;;;;;;;;;;7395394;19;20157;-77
2022/07/10 01:06:40;;;;;;;6.13;3.50;;;;;;;;;;7395466;19;20127;-78
2022/07/10 01:09:06;;;;;;;4.40;3.23;;;;;;;;;;7394126;19;20579;-77
2022/07/10 01:11:33;;;;;;;3.10;2.80;;;;;;;;;;7393291;19;20189;-78
2022/07/10 01:13:58;;;;;;;4.87;3.00;;;;;;;;;;7393761;19;20217;-78
2022/07/10 01:16:24;;;;;;;3.20;2.90;;;;;;;;;;7393568;19;20139;-78
2022/07/10 01:18:49;;;;;;;5.27;3.63;;;;;;;;;;7394639;19;20544;-78
2022/07/10 01:21:27;;;;;;;3.30;2.53;;;;;;;;;;7393200;19;20170;-77
2022/07/10 01:23:53;;;;;;;2.70;2.50;;;;;;;;;;7410920;19;20137;-79
2022/07/10 01:26:20;;;;;;;4.67;3.10;;;;;;;;;;7402211;19;20599;-78
2022/07/10 01:28:48;;;;;;;3.83;2.80;;;;;;;;;;7393718;19;20579;-79
2022/07/10 01:31:13;;;;;;;4.27;3.20;;;;;;;;;;7391946;19;20240;-78
2022/07/10 01:33:39;;;;;;;3.50;3.20;;;;;;;;;;7395355;19;20553;-79
2022/07/10 01:36:04;;;;;;;5.10;4.00;;;;;;;;;;7395006;19;20160;-78
2022/07/10 01:38:29;;;;;;;7.93;4.17;;;;;;;;;;7391338;19;20161;-78
2022/07/10 01:40:55;;;;;;;5.50;4.47;;;;;;;;;;7391796;19;20527;-77
2022/07/10 01:43:20;;;;;;;7.33;4.50;;;;;;;;;;7392613;19;20129;-78
2022/07/10 01:45:45;;;;;;;6.13;4.90;;;;;;;;;;7392010;19;20508;-78
2022/07/10 01:48:11;;;;;;;6.93;5.33;;;;;;;;;;7389418;19;20145;-78
2022/07/10 01:50:36;;;;;;;7.33;5.70;;;;;;;;;;7393782;19;20485;-78
2022/07/10 01:53:05;;;;;;;8.07;5.70;;;;;;;;;;7391252;19;20157;-78
2022/07/10 01:55:31;;;;;;;7.97;5.10;;;;;;;;;;7393209;19;20129;-77
2022/07/10 01:57:56;;;;;;;7.27;5.73;;;;;;;;;;7391818;19;20212;-77
2022/07/10 02:00:23;;;;;;;7.63;5.70;;;;;;;;;;7390495;19;20158;-77
2022/07/10 02:04:40;;;;;;;7.13;5.33;;;;;;;;;;7392905;19;20172;-78
2022/07/10 02:05:35;;;;;;;8.67;6.00;;;;;;;;;;7388411;19;20145;-77
2022/07/10 02:08:03;;;;;;;6.93;4.97;;;;;;;;;;7391885;19;20212;-77
2022/07/10 02:10:28;;;;;;;8.53;5.63;;;;;;;;;;7391221;19;20500;-78
2022/07/10 02:12:54;;;;;;;7.97;5.57;;;;;;;;;;7393208;19;20133;-77
2022/07/10 02:15:19;;;;;;;9.07;6.07;;;;;;;;;;7390410;19;20166;-77
2022/07/10 02:17:44;;;;;;;7.37;5.77;;;;;;;;;;7391154;19;20200;-77
2022/07/10 02:20:10;;;;;;;18.13;11.23;;;;;;;;;;7389933;19;20690;-77
2022/07/10 02:22:36;;;;;;;18.07;10.87;;;;;;;;;;7391564;19;20125;-77
2022/07/10 02:25:01;;;;;;;16.60;11.20;;;;;;;;;;7391453;19;20189;-78
2022/07/10 02:27:26;;;;;;;13.37;10.30;;;;;;;;;;7391718;19;20121;-77
2022/07/10 02:29:53;;;;;;;11.17;7.27;;;;;;;;;;7392275;19;20585;-78
2022/07/10 02:32:18;;;;;;;14.10;8.23;;;;;;;;;;7382175;19;20651;-77
2022/07/10 02:34:44;;;;;;;10.03;5.53;;;;;;;;;;7389664;19;20175;-78
2022/07/10 02:37:09;;;;;;;9.03;7.03;;;;;;;;;;7390759;19;20594;-79
2022/07/10 02:39:34;;;;;;;5.80;5.23;;;;;;;;;;7384036;19;20128;-76
2022/07/10 02:42:00;;;;;;;6.03;4.27;;;;;;;;;;7382634;19;20157;-77
2022/07/10 02:44:25;;;;;;;6.97;3.77;;;;;;;;;;7383444;19;20627;-79
2022/07/10 02:46:50;;;;;;;5.77;3.70;;;;;;;;;;7383917;19;20161;-77
2022/07/10 02:49:16;;;;;;;6.27;3.80;;;;;;;;;;7382962;19;20148;-77
2022/07/10 02:51:41;;;;;;;4.77;3.00;;;;;;;;;;7383877;19;20145;-78
2022/07/10 02:54:07;;;;;;;3.43;3.03;;;;;;;;;;7385262;19;20196;-77
2022/07/10 02:56:33;;;;;;;4.40;3.67;;;;;;;;;;7391752;19;20160;-78
2022/07/10 02:58:58;;;;;;;4.73;3.10;;;;;;;;;;7389001;19;20144;-77
2022/07/10 03:01:24;;;;;;;3.90;3.20;;;;;;;;;;7389428;19;20156;-78
2022/07/10 03:03:49;;;;;;;12.47;5.07;;;;;;;;;;7391865;19;20595;-78
2022/07/10 03:06:15;;;;;;;6.90;4.77;;;;;;;;;;7397677;19;20121;-76
2022/07/10 03:08:41;;;;;;;8.93;5.03;;;;;;;;;;7401793;19;20172;-77
2022/07/10 03:11:07;;;;;;;4.80;4.07;;;;;;;;;;7399886;19;20180;-78
2022/07/10 03:13:32;;;;;;;7.27;3.90;;;;;;;;;;7402797;19;20629;-77
2022/07/10 03:15:57;;;;;;;3.10;2.90;;;;;;;;;;7398568;19;20575;-78
2022/07/10 03:18:25;;;;;;;3.93;2.60;;;;;;;;;;7398959;19;20177;-78
2022/07/10 03:20:51;;;;;;;4.60;3.63;;;;;;;;;;7394976;19;20170;-79
2022/07/10 03:23:16;;;;;;;4.67;3.40;;;;;;;;;;7390864;19;20519;-77
2022/07/10 03:25:41;;;;;;;3.40;2.73;;;;;;;;;;7390937;19;20208;-76
2022/07/10 03:28:06;;;;;;;4.43;3.27;;;;;;;;;;7390616;19;20188;-78
2022/07/10 03:30:32;;;;;;;3.73;2.73;;;;;;;;;;7391734;19;20515;-79
2022/07/10 03:32:57;;;;;;;6.13;3.60;;;;;;;;;;7390363;19;20153;-78
2022/07/10 03:35:25;;;;;;;4.43;3.03;;;;;;;;;;7390448;19;20245;-78
2022/07/10 03:37:50;;;;;;;3.63;3.10;;;;;;;;;;7391776;19;20131;-77
2022/07/10 03:40:16;;;;;;;5.30;2.93;;;;;;;;;;7389659;19;20702;-78
2022/07/10 03:42:41;;;;;;;4.00;3.00;;;;;;;;;;7389849;19;20159;-78
2022/07/10 03:45:07;;;;;;;3.57;2.90;;;;;;;;;;7393511;19;20132;-78
2022/07/10 03:47:32;;;;;;;3.30;2.70;;;;;;;;;;7388561;19;20486;-78
2022/07/10 03:49:57;;;;;;;3.70;3.03;;;;;;;;;;7391408;19;20498;-78
2022/07/10 03:52:22;;;;;;;6.33;3.80;;;;;;;;;;7387515;19;20148;-79
2022/07/10 03:54:48;;;;;;;3.93;2.67;;;;;;;;;;7389601;19;20127;-78
2022/07/10 03:59:57;;;;;;;3.33;2.90;;;;;;;;;;7391360;19;20140;-77
2022/07/10 04:02:22;;;;;;;3.20;2.83;;;;;;;;;;7386079;19;20619;-77
2022/07/10 04:04:48;;;;;;;6.43;3.00;;;;;;;;;;7390708;19;20782;-78
2022/07/10 04:07:13;;;;;;;3.90;2.90;;;;;;;;;;7387879;19;20145;-76
2022/07/10 04:09:39;;;;;;;5.13;3.10;;;;;;;;;;7388860;19;20152;-78
2022/07/10 04:12:04;;;;;;;2.97;2.73;;;;;;;;;;7387394;19;20217;-78
2022/07/10 04:14:30;;;;;;;4.37;3.20;;;;;;;;;;7387724;19;20627;-77
2022/07/10 04:16:55;;;;;;;3.23;2.93;;;;;;;;;;7386996;19;20203;-77
2022/07/10 04:19:21;;;;;;;4.50;4.00;;;;;;;;;;7386466;19;20140;-78
2022/07/10 04:21:47;;;;;;;4.30;2.93;;;;;;;;;;7387057;19;20176;-78
2022/07/10 04:24:12;;;;;;;3.70;3.00;;;;;;;;;;7389837;19;20591;-77
2022/07/10 04:26:37;;;;;;;3.10;2.80;;;;;;;;;;7387315;19;20141;-78
2022/07/10 04:29:03;;;;;;;3.00;2.80;;;;;;;;;;7389498;19;20698;-77
2022/07/10 04:31:28;;;;;;;3.47;3.17;;;;;;;;;;7384863;19;20145;-76
2022/07/10 04:33:55;;;;;;;3.87;3.03;;;;;;;;;;7390046;19;20144;-77
2022/07/10 04:36:20;;;;;;;3.80;3.17;;;;;;;;;;7384441;19;20208;-78
2022/07/10 04:38:45;;;;;;;3.40;3.10;;;;;;;;;;7385429;19;20641;-79
2022/07/10 04:41:11;;;;;;;4.37;3.00;;;;;;;;;;7385691;19;20575;-77
2022/07/10 04:43:36;;;;;;;5.23;3.20;;;;;;;;;;7387801;19;20250;-78
2022/07/10 04:46:01;;;;;;;3.53;3.13;;;;;;;;;;7385838;19;20451;-78
2022/07/10 04:48:27;;;;;;;4.50;2.90;;;;;;;;;;7385668;19;20644;-78
2022/07/10 04:50:52;;;;;;;3.53;3.00;;;;;;;;;;7384640;19;20192;-79
2022/07/10 04:53:17;;;;;;;3.40;2.90;;;;;;;;;;7389525;19;20118;-78
2022/07/10 04:55:43;;;;;;;3.50;2.83;;;;;;;;;;7395928;19;20152;-77
2022/07/10 04:58:08;;;;;;;3.47;3.17;;;;;;;;;;7390163;19;20121;-78
2022/07/10 05:00:33;;;;;;;3.43;3.10;;;;;;;;;;7388333;19;20213;-77
2022/07/10 05:02:59;;;;;;;5.10;3.13;;;;;;;;;;7386732;19;20686;-78
2022/07/10 05:05:24;;;;;;;5.97;3.27;;;;;;;;;;7385868;19;20153;-79
2022/07/10 05:07:49;;;;;;;4.10;3.00;;;;;;;;;;7386888;19;20136;-78
2022/07/10 05:10:15;;;;;;;3.13;2.83;;;;;;;;;;7387082;19;20153;-81
2022/07/10 05:12:40;;;;;;;4.43;2.93;;;;;;;;;;7388663;19;20148;-77
2022/07/10 05:15:06;;;;;;;3.43;3.13;;;;;;;;;;7387360;19;20117;-78
2022/07/10 05:17:31;;;;;;;3.53;3.23;;;;;;;;;;7389302;19;20146;-77
2022/07/10 05:19:57;;;;;;;4.23;3.30;;;;;;;;;;7394960;19;20634;-78
2022/07/10 05:22:23;;;;;;;4.37;3.60;;;;;;;;;;7390693;19;20212;-78
2022/07/10 05:24:49;;;;;;;3.53;3.23;;;;;;;;;;7393610;19;20121;-77
2022/07/10 05:27:17;;;;;;;4.50;3.20;;;;;;;;;;7396317;19;20141;-78
2022/07/10 05:29:43;;;;;;;3.87;3.40;;;;;;;;;;7394369;19;20536;-79
2022/07/10 05:32:08;;;;;;;3.70;3.40;;;;;;;;;;7394026;19;20148;-78
2022/07/10 05:34:33;;;;;;;4.03;3.20;;;;;;;;;;7406140;19;20144;-79
2022/07/10 05:36:59;;;;;;;4.27;3.20;;;;;;;;;;7407005;19;20216;-76
2022/07/10 05:39:26;;;;;;;3.90;3.20;;;;;;;;;;7390033;19;20136;-79
2022/07/10 05:41:52;;;;;;;3.80;3.40;;;;;;;;;;7391443;19;20165;-77
2022/07/10 17:39:00;;;;;;;3.78;3.42;;;;;;;;;;7385891;19;20188;-78
2022/07/10 17:41:27;;;;;;;4.47;3.42;;;;;;;;;;7378176;19;20908;-78
2022/07/10 17:43:52;;;;;;;3.35;2.88;;;;;;;;;;7388135;19;20136;-78
2022/07/10 17:46:18;;;;;;;5.28;2.97;;;;;;;;;;7382462;19;20121;-78
2022/07/10 17:48:43;;;;;;;4.13;3.03;;;;;;;;;;7382159;19;20213;-78
2022/07/10 17:51:08;;;;;;;4.18;3.20;;;;;;;;;;7376358;19;20615;-78
2022/07/10 17:53:33;;;;;;;3.88;3.47;;;;;;;;;;7379268;19;20658;-78
2022/07/10 17:55:59;;;;;;;3.00;2.80;;;;;;;;;;7384823;19;20590;-78
2022/07/10 17:58:24;;;;;;;5.13;3.20;;;;;;;;;;7381478;19;20133;-77
2022/07/10 18:00:50;;;;;;;5.78;2.90;;;;;;;;;;7379489;19;20228;-78
2022/07/10 18:03:15;;;;;;;5.32;2.90;;;;;;;;;;7379830;19;20137;-78
2022/07/10 18:05:45;;;;;;;3.42;3.00;;;;;;;;;;7378162;19;20121;-78
2022/07/10 18:08:12;;;;;;;3.58;2.70;;;;;;;;;;7378176;19;20392;-77
2022/07/10 18:10:38;;;;;;;4.05;3.08;;;;;;;;;;7373429;19;20153;-77
2022/07/10 18:13:03;;;;;;;12.60;3.40;;;;;;;;;;7381151;19;20153;-78
2022/07/10 18:15:28;;;;;;;7.90;7.20;;;;;;;;;;7387108;19;20164;-77
2022/07/10 18:17:54;;;;;;;7.57;6.57;;;;;;;;;;7380530;19;20456;-76
2022/07/10 18:20:19;;;;;;;3.10;2.65;;;;;;;;;;7381136;19;20498;-76
2022/07/10 18:22:44;;;;;;;7.65;6.65;;;;;;;;;;7380122;19;20140;-77
2022/07/10 18:25:10;;;;;;;2.60;2.40;;;;;;;;;;7385272;19;20164;-78
2022/07/10 18:27:35;;;;;;;2.75;2.45;;;;;;;;;;7384844;19;20176;-79
2022/07/10 18:30:01;;;;;;;3.25;2.95;;;;;;;;;;7373812;19;20129;-78
2022/07/10 18:35:11;;;;;;;2.30;2.10;;;;;;;;;;7384470;19;20616;-77
2022/07/10 18:37:36;;;;;;;2.40;2.30;;;;;;;;;;7379134;19;20216;-77
2022/07/10 18:40:03;;;;;;;2.95;2.60;;;;;;;;;;7382484;19;20582;-78
2022/07/10 18:42:28;;;;;;;4.10;2.45;;;;;;;;;;7374457;19;20755;-78
2022/07/10 18:44:54;;;;;;;4.10;2.45;;;;;;;;;;7383374;19;20125;-78
2022/07/10 18:47:19;;;;;;;4.00;3.08;;;;;;;;;;7383736;19;20507;-77
2022/07/10 18:49:44;;;;;;;4.07;2.85;;;;;;;;;;7386290;19;20133;-77
2022/07/10 18:52:10;;;;;;;4.70;3.58;;;;;;;;;;7382878;19;20241;-76
2022/07/10 18:54:35;;;;;;;4.43;3.85;;;;;;;;;;7376953;19;20133;-76
2022/07/10 18:57:02;;;;;;;3.70;3.38;;;;;;;;;;7385788;19;20181;-77
2022/07/10 18:59:28;;;;;;;3.83;2.42;;;;;;;;;;7380656;19;20156;-77
2022/07/10 19:01:53;;;;;;;2.28;2.08;;;;;;;;;;7382381;19;20180;-77
2022/07/10 19:04:18;;;;;;;3.55;2.47;;;;;;;;;;7384808;19;20852;-77
2022/07/10 19:06:44;;;;;;;3.80;2.70;;;;;;;;;;7388622;19;20600;-77
2022/07/10 19:09:10;;;;;;;4.20;2.42;;;;;;;;;;7381446;19;20129;-77
2022/07/10 19:11:35;;;;;;;3.72;2.40;;;;;;;;;;7382542;19;20209;-77
2022/07/10 19:14:02;;;;;;;3.00;2.13;;;;;;;;;;7382247;19;20613;-77
2022/07/10 19:16:27;;;;;;;2.90;2.30;;;;;;;;;;7379324;19;20614;-78
2022/07/10 19:18:53;;;;;;;4.25;2.03;;;;;;;;;;7378735;19;20129;-78
2022/07/10 19:21:18;;;;;;;2.92;2.38;;;;;;;;;;7379882;19;20152;-77
2022/07/10 19:23:47;;;;;;;2.85;2.40;;;;;;;;;;7383117;19;20147;-76
2022/07/10 19:26:13;;;;;;;7.05;4.32;;;;;;;;;;7383151;19;20212;-77
2022/07/10 19:28:39;;;;;;;2.90;1.70;;;;;;;;;;7386730;19;20491;-76
2022/07/10 19:31:04;;;;;;;2.97;1.60;;;;;;;;;;7384432;19;20141;-77
2022/07/10 19:33:30;;;;;;;2.97;1.80;;;;;;;;;;7386027;19;20132;-77
2022/07/10 19:35:55;;;;;;;5.13;1.63;;;;;;;;;;7386690;19;20124;-77
2022/07/10 19:38:25;;;;;;;2.45;1.75;;;;;;;;;;7384956;19;20153;-78
2022/07/10 19:40:50;;;;;;;5.03;1.60;;;;;;;;;;7384271;19;20144;-77
2022/07/10 19:43:15;;;;;;;2.42;1.65;;;;;;;;;;7383833;19;20136;-77
2022/07/10 19:45:41;;;;;;;11.25;6.05;;;;;;;;;;7387911;19;20141;-77
2022/07/10 19:48:06;;;;;;;5.47;3.08;;;;;;;;;;7379053;19;20185;-76
2022/07/10 19:50:32;;;;;;;5.20;1.70;;;;;;;;;;7377833;19;20172;-77
2022/07/10 19:52:57;;;;;;;5.43;2.70;;;;;;;;;;7370802;19;20156;-76
2022/07/10 19:55:23;;;;;;;3.40;1.50;;;;;;;;;;7380983;19;20510;-77
2022/07/10 19:57:48;;;;;;;5.25;1.73;;;;;;;;;;7385949;19;20137;-77
2022/07/10 20:00:14;;;;;;;4.65;1.85;;;;;;;;;;7370589;19;20152;-76
2022/07/10 20:02:39;;;;;;;3.42;1.58;;;;;;;;;;7382660;19;20162;-76
2022/07/10 20:05:05;;;;;;;2.22;1.20;;;;;;;;;;7386140;19;20626;-76
2022/07/10 20:07:31;;;;;;;1.23;1.10;;;;;;;;;;7381584;19;20148;-76
2022/07/10 20:09:56;;;;;;;3.85;1.40;;;;;;;;;;7379330;19;20145;-77
2022/07/10 20:12:21;;;;;;;1.30;1.08;;;;;;;;;;7367627;19;20177;-77
2022/07/10 20:14:47;;;;;;;2.53;1.13;;;;;;;;;;7366076;19;20152;-78
2022/07/10 20:17:12;;;;;;;1.70;1.10;;;;;;;;;;7371296;19;20211;-77
2022/07/10 20:19:38;;;;;;;3.75;1.23;;;;;;;;;;7380035;19;20163;-77
2022/07/10 20:22:04;;;;;;;2.97;1.33;;;;;;;;;;7377254;19;20168;-76
2022/07/10 20:24:30;;;;;;;1.42;1.10;;;;;;;;;;7374470;19;20131;-77
2022/07/10 20:26:55;;;;;;;4.22;1.35;;;;;;;;;;7367666;19;20129;-77
2022/07/10 20:29:21;;;;;;;1.23;1.13;;;;;;;;;;7365705;19;20152;-76
2022/07/10 20:31:46;;;;;;;3.72;1.80;;;;;;;;;;7370011;19;20638;-76
2022/07/10 20:34:11;;;;;;;2.50;1.20;;;;;;;;;;7366558;19;20216;-77
2022/07/10 20:39:21;;;;;;;2.35;1.20;;;;;;;;;;7377884;19;20136;-76
2022/07/10 20:41:46;;;;;;;7.03;1.20;;;;;;;;;;7380198;19;20149;-76
2022/07/10 20:44:11;;;;;;;2.88;1.15;;;;;;;;;;7367097;19;20523;-77
2022/07/10 20:46:37;;;;;;;2.85;1.20;;;;;;;;;;7379390;19;20166;-77
2022/07/10 20:49:02;;;;;;;1.85;1.00;;;;;;;;;;7376981;19;20133;-77
2022/07/10 20:51:27;;;;;;;5.03;2.28;;;;;;;;;;7377078;19;20200;-77
2022/07/10 20:53:53;;;;;;;2.75;1.92;;;;;;;;;;7390352;19;20137;-77
2022/07/10 20:56:18;;;;;;;2.80;1.73;;;;;;;;;;7389409;19;20176;-76
2022/07/10 20:58:43;;;;;;;1.95;1.10;;;;;;;;;;7388979;19;20127;-76
2022/07/10 21:01:09;;;;;;;1.85;1.00;;;;;;;;;;7373965;19;20152;-76
2022/07/10 21:03:35;;;;;;;3.00;0.90;;;;;;;;;;7372767;19;20144;-76
2022/07/10 21:06:00;;;;;;;1.70;1.10;;;;;;;;;;7373451;19;20140;-77
2022/07/10 21:08:25;;;;;;;1.15;1.00;;;;;;;;;;7378123;19;20681;-78
2022/07/10 21:10:51;;;;;;;2.03;1.10;;;;;;;;;;7368512;19;20183;-76
2022/07/10 21:13:17;;;;;;;2.88;1.00;;;;;;;;;;7387800;19;20141;-76
2022/07/10 21:15:44;;;;;;;1.38;0.90;;;;;;;;;;7390633;19;20174;-76
2022/07/10 21:18:10;;;;;;;2.23;1.10;;;;;;;;;;7391556;19;20141;-76
2022/07/10 21:20:36;;;;;;;4.00;1.23;;;;;;;;;;7392257;19;20240;-76
2022/07/10 21:23:02;;;;;;;1.70;1.00;;;;;;;;;;7390566;19;20145;-77
2022/07/10 21:25:28;;;;;;;2.10;1.10;;;;;;;;;;7395347;19;20143;-76
2022/07/10 21:27:54;;;;;;;2.00;1.30;;;;;;;;;;7396912;19;20129;-76
2022/07/10 21:30:19;;;;;;;1.63;1.20;;;;;;;;;;7398169;19;20169;-77
2022/07/10 21:32:46;;;;;;;2.23;1.47;;;;;;;;;;7382829;19;20578;-78
2022/07/10 21:35:12;;;;;;;2.47;1.70;;;;;;;;;;7386704;19;20257;-79
2022/07/10 21:37:37;;;;;;;2.13;1.20;;;;;;;;;;7388780;19;20125;-80
2022/07/10 21:40:02;;;;;;;2.87;1.67;;;;;;;;;;7383179;19;20589;-75
2022/07/10 21:42:28;;;;;;;3.50;1.40;;;;;;;;;;7372803;19;20681;-76
2022/07/10 21:44:53;;;;;;;4.37;1.70;;;;;;;;;;7378952;19;20472;-76
2022/07/10 21:47:19;;;;;;;4.17;1.77;;;;;;;;;;7377996;19;20113;-77
2022/07/10 21:49:44;;;;;;;4.23;2.13;;;;;;;;;;7386754;19;20148;-78
2022/07/10 21:52:10;;;;;;;2.37;1.13;;;;;;;;;;7383861;19;20180;-76
2022/07/10 21:54:35;;;;;;;2.07;1.10;;;;;;;;;;7389025;19;21350;-77
2022/07/10 21:57:01;;;;;;;2.40;1.10;;;;;;;;;;7379798;19;20125;-76
2022/07/10 21:59:26;;;;;;;1.77;1.30;;;;;;;;;;7368098;19;20626;-78
2022/07/10 22:01:52;;;;;;;2.50;1.17;;;;;;;;;;7376291;19;20168;-79
2022/07/10 22:04:17;;;;;;;0.80;0.80;;;;;;;;;;7391389;19;20192;-75
2022/07/10 22:06:42;;;;;;;1.27;0.90;;;;;;;;;;7410781;19;20117;-76
2022/07/10 22:09:08;;;;;;;2.40;1.00;;;;;;;;;;7415032;19;20164;-76
2022/07/10 22:11:33;;;;;;;2.23;1.03;;;;;;;;;;7417129;19;20145;-76
2022/07/10 22:13:58;;;;;;;2.07;1.07;;;;;;;;;;7418271;19;20176;-76
2022/07/10 22:16:24;;;;;;;1.47;0.90;;;;;;;;;;7371604;19;20116;-75
2022/07/10 22:18:49;;;;;;;1.97;1.10;;;;;;;;;;7382378;19;20129;-78
2022/07/10 22:21:14;;;;;;;2.50;1.10;;;;;;;;;;7380444;19;20165;-76
2022/07/10 22:23:40;;;;;;;2.03;1.10;;;;;;;;;;7382461;19;20133;-76
2022/07/10 22:26:05;;;;;;;2.03;1.00;;;;;;;;;;7388182;19;20495;-76
2022/07/10 22:28:31;;;;;;;2.33;1.10;;;;;;;;;;7389224;19;20128;-76
2022/07/10 22:33:40;;;;;;;2.47;1.00;;;;;;;;;;7380514;19;20144;-76
2022/07/10 22:36:06;;;;;;;2.13;1.10;;;;;;;;;;7410341;19;20429;-76
2022/07/10 22:38:32;;;;;;;2.37;1.00;;;;;;;;;;7412386;19;20615;-77
2022/07/10 22:40:58;;;;;;;2.60;1.10;;;;;;;;;;7403179;19;20590;-77
2022/07/10 22:43:23;;;;;;;3.83;1.00;;;;;;;;;;7378635;19;20133;-78
2022/07/10 22:45:48;;;;;;;1.43;0.97;;;;;;;;;;7380624;19;20153;-78
2022/07/10 22:48:14;;;;;;;1.73;1.00;;;;;;;;;;7375200;19;20172;-78
2022/07/10 22:50:39;;;;;;;3.30;1.40;;;;;;;;;;7378220;19;20240;-77
2022/07/10 22:53:04;;;;;;;4.43;1.13;;;;;;;;;;7378083;19;20822;-78
2022/07/10 22:55:30;;;;;;;3.37;1.20;;;;;;;;;;7379648;19;20540;-78
2022/07/10 22:57:55;;;;;;;3.23;1.00;;;;;;;;;;7379223;19;20587;-78
2022/07/10 23:00:21;;;;;;;1.63;1.20;;;;;;;;;;7369160;19;20132;-78
2022/07/10 23:02:47;;;;;;;1.93;1.07;;;;;;;;;;7375377;19;20156;-79
2022/07/10 23:05:13;;;;;;;2.33;1.10;;;;;;;;;;7378013;19;20128;-78
2022/07/10 23:07:38;;;;;;;4.30;1.23;;;;;;;;;;7375997;19;20128;-78
2022/07/10 23:10:04;;;;;;;2.80;1.23;;;;;;;;;;7364535;19;20129;-78
2022/07/10 23:12:35;;;;;;;4.47;1.30;;;;;;;;;;7353822;19;20180;-78
2022/07/10 23:15:01;;;;;;;2.60;1.03;;;;;;;;;;7372715;19;20144;-78
2022/07/10 23:17:27;;;;;;;1.93;1.37;;;;;;;;;;7373501;19;20113;-77
2022/07/10 23:19:52;;;;;;;1.63;1.30;;;;;;;;;;7374591;19;20144;-78
2022/07/10 23:22:17;;;;;;;2.50;1.17;;;;;;;;;;7369270;19;20232;-78
2022/07/10 23:24:42;;;;;;;1.43;1.10;;;;;;;;;;7373242;19;20152;-78
2022/07/10 23:27:08;;;;;;;3.30;1.03;;;;;;;;;;7373090;19;20149;-78
2022/07/10 23:29:33;;;;;;;3.60;1.10;;;;;;;;;;7373526;19;20226;-78
2022/07/10 23:31:59;;;;;;;3.77;1.43;;;;;;;;;;7365918;19;20162;-77
2022/07/10 23:34:29;;;;;;;2.10;1.30;;;;;;;;;;7375528;19;20133;-77
2022/07/10 23:36:55;;;;;;;2.53;1.30;;;;;;;;;;7367976;19;20140;-77
2022/07/10 23:39:20;;;;;;;2.13;1.10;;;;;;;;;;7379126;19;20125;-78
2022/07/10 23:41:46;;;;;;;3.20;1.20;;;;;;;;;;7373047;19;20156;-78
2022/07/10 23:44:11;;;;;;;3.40;1.10;;;;;;;;;;7380290;19;20117;-78
2022/07/10 23:46:36;;;;;;;1.93;1.10;;;;;;;;;;7376262;19;20169;-78
2022/07/10 23:51:46;;;;;;;3.90;1.30;;;;;;;;;;7370204;19;20159;-78
2022/07/10 23:54:11;;;;;;;2.30;1.10;;;;;;;;;;7374379;19;20156;-77
2022/07/10 23:56:36;;;;;;;2.20;1.00;;;;;;;;;;7379123;19;20454;-78
2022/07/10 23:59:02;;;;;;;2.90;1.03;;;;;;;;;;7381544;19;20239;-78
